AREA preflight bulletin
Updated "live" 16 Sep 2019, 20:33

back to the map




METAR og TAF


NUUK
  AKTUEL BGGH 161950Z 05005KT 9999 FEW020 06/M04 Q1020=
  TAF 9 timer BGGH 162013Z 1621/1703 05006KT 9999 FEW020=

KANGERLUSSUAQ
  AKTUEL BGSF 162020Z AUTO 06004KT 350V130 9999NDV BKN060/// BKN140/// 05/M03 Q1022=
  TAF 24 timer BGSF 161938Z 1618/1724 VRB08KT 9999 BKN060 TEMPO 1618/1706 SCT060 BECMG 1623/1701 06008KT BECMG 1706/1708 SCT200=

KULUSUK
  AKTUEL BGKK 162020Z AUTO 09002KT 9999NDV NCD 03/M07 Q1021=
  TAF 9 timer BGKK 161124Z 1612/1619 VRB08KT 9999 FEW200=

NERLERIT INAAT
  AKTUEL BGCO 161950Z AUTO 32008KT //// OVC087/// 04/M07 Q1019=
  TAF 9 timer BGCO 161158Z 1612/1616 34012KT 9999 BKN060=

KEFLAVIK
  AKTUEL BIKF 162030Z 29013KT 9999 FEW021 SCT030 BKN036 07/04 Q1019=
  TAF 24 timer BIKF 162000Z 1621/1721 31008KT 9999 FEW025 BKN040 TX09/1715Z TN04/1706Z PROB40 TEMPO 1621/1703 -SHRA BKN015 BECMG 1718/1721 11012KT=

REYKJAVIK
  AKTUEL BIRK 162000Z 32005KT 9999 FEW026 SCT041 BKN150 08/03 Q1018=
  TAF 24 timer BIRK 162000Z 1621/1721 31006KT 9999 FEW025 BKN035 TX09/1715Z TN04/1706Z PROB40 TEMPO 1621/1703 -SHRA BKN015 BECMG 1718/1721 10010KT=

AKUREYRI
  AKTUEL BIAR 162000Z 30007KT 9999 FEW020 SCT038 BKN048 06/02 Q1018 RMK WIND VADLAHEIDI 01708KT=
  TAF 24 timer BIAR 162000Z 1621/1721 34006KT 9999 SCT025 BKN040 TX08/1715Z TN02/1706Z PROB40 TEMPO 1621/1706 -RADZ BKN015=


SIGMETS:

Ingen SIGMET fundet:

NOTAM/SNOWTAM for operationel use has to be confirmed with the
nearest AIS Briefing Office prior to a flight.

ICAO
BGGH (NUUK)

FIR
BGGL

Notam_id:
BGB0503/19

valid from:
1909120000

E) TRIGGER NOTAM - PERM AIP AIRAC AMDT 06/19 WEF 12 SEP 2019. IAC RNAV (GNSS) RWY 23 RENAMED TO RNP RWY 23 AND PROCEDURE UPDATED (E.G. VARIATION CHANGED, WAYPOINTS GHT23 AND GHM23 WITHDRAWN, NEW WAYPOINTS ADDED.).

valid to:
1909252359




ICAO
BGGH (NUUK)

FIR
BGGL

Notam_id:
BGB0591/19

valid from:
1909041000

E) LOC GN 110,300 MHZ U/S.

valid to:
1909262359




ICAO
BGGH (NUUK)

FIR
BGGL

Notam_id:
BGB0605/19

valid from:
1909101306

E) BGGH AFIS FREQ 119,100MHZ LIMITED RADIOCOVERAGE WITHIN TIZ TO THE NE, E, SE AND S.

valid to:
1911301300EST




ICAO
BGKK (KULUSUK)

FIR
BGGL

Notam_id:
BGB0584/19

valid from:
1908301523

E) LOC DA OBST LIGHTS LIL F R OUT OF SERVICE. PSN 653413N0371225W.

valid to:
1909271900EST


Replacing:
BGB0491/19

ICAO
BGKK (KULUSUK)

FIR
BGGL

Notam_id:
BGB0740/17

valid from:
1709221803

E) PAPI RWY 11 ANGLE CHANGED TO 3.40 DEG.

valid to:
PERM




ICAO
BGGL (SONDRESTROM FIR)

FIR
BGGL

Notam_id:
BGA0469/19

valid from:
1910011200

E) NUUK INFORMATION FREQ 121.300 MHZ PSN 642329N0510648E (QINGAO) U/S DUE TO MAINTENANCE.

valid to:
1910011700




ICAO
BGGL (SONDRESTROM FIR)

FIR
BGGL

Notam_id:
BGA0454/19

valid from:
1909010530

E) CHECKLIST YEAR=2017 0269 YEAR=2018 0199 YEAR=2019 0323 0363 0369 0371 0375 0377 0379 0381 0383 0385 0416 0440 0446 0447 0450 0451 0453 LATEST PUBLICATIONS AIP AIRAC AMDT IFR 006/2019 EFFECTIVE DATE 12 SEP 19 AIP AMDT IFR 003/2018 EFFECTIVE DATE 15 MAR 18 AIP SUP IFR 001/2019 EFFECTIVE DATE 06 JUN 19 AIC IFR A001/2019 EFFECTIVE DATE 17 JAN 19

valid to:
1910010530EST


Replacing:
BGA0396/19

ICAO
BGGL (SONDRESTROM FIR)

FIR
BGGL

Notam_id:
BGB0587/19

valid from:
1909010530

E) CHECKLIST YEAR=2017 0740 YEAR=2018 NIL YEAR=2019 0145 0416 0496 0499 0503 0504 0506 0508 0539 0540 0541 0561 0562 0582 0583 0584 0585 0586 LATEST PUBLICATIONS AIP AIRAC AMDT IFR 006/2019 EFFECTIVE DATE 12 SEP 19 AIP AMDT IFR 003/2018 EFFECTIVE DATE 15 MAR 18 AIP SUP IFR 001/2019 EFFECTIVE DATE 06 JUN 19 AIC IFR A001/2019 EFFECTIVE DATE 17 JAN 19

valid to:
1910010530EST


Replacing:
BGB0528/19

ICAO
BGGL (SONDRESTROM FIR)

FIR
BGGL

Notam_id:
BGC0086/19

valid from:
1909010531

E) CHECKLIST YEAR=2018 0079 0081 YEAR=2019 0049 0063 0067 0068 0069 0070 0071 0073 0074 0079 0084 0085 LATEST PUBLICATIONS AIP AIRAC AMDT IFR 006/2019 EFFECTIVE DATE 12 SEP 19 AIP AMDT IFR 003/2018 EFFECTIVE DATE 15 MAR 18 AIP SUP IFR 001/2019 EFFECTIVE DATE 06 JUN 19 AIC IFR A001/2019 EFFECTIVE DATE 17 JAN 19

valid to:
1910010531EST


Replacing:
BGC0065/19

ICAO
BGGL (SONDRESTROM FIR)

FIR
BGGL

Notam_id:
BGA0447/19

valid from:
1910100000

E) AIP GREENLAND AIRAC AMDT EFFECTIVE DATE 10 OCT 2019: NIL.

valid to:
1910232359




ICAO
BGGL (SONDRESTROM FIR)

FIR
BGGL

Notam_id:
BGA0416/19

valid from:
1908141100

E) DIRECTION OF CRUISING LEVELS FOR RNP-ROUTE UT596 HAS BEEN CHANGED FROM EVEN TO ODD.

valid to:
1911062359




ICAO
BGGL (SONDRESTROM FIR)

FIR
BGGL

Notam_id:
BGA0363/19

valid from:
1909120000

E) TRIGGER NOTAM - PERM AIP AIRAC AMDT 06/19 WEF 12 SEP 2019. REF ENR 4.5: ABN KANGERSUATSIAQ ADDED AND CHANGES IN LOCATION/REMARKS AT SEVERAL ABN.

valid to:
1909252359




ICAO
BGGL (SONDRESTROM FIR)

FIR
BGGL

Notam_id:
BGA0199/18

valid from:
1805310935

E) GREENLAND AND ADJACENT WATERS ARE CONSIDERED HOSTILE AREAS BY THE CIVIL AVIATION AUTHORITY (TBST). THREE MAJOR REASONS CONTRIBUTE TO DEFINING THE AREA AS HOSTILE: A SAFE FORCED LANDING CANNOT BE ACCOMPLISHED BECAUSE THE SURFACE IS INADEQUATE. THE HELICOPTER OCCUPANTS CANNOT BE ADEQUATELY PROTECTED FROM THE ELEMENTS. SEARCH AND RESCUE RESPONSE/CAPABILITY ARE NOT PROVIDED CONSISTENT WITH ANTICIPATED EXPOSURE.

valid to:
PERM




ICAO
BIKF (KEFLAVIK)

FIR
BIRD

Notam_id:
BIA0425/19

valid from:
1909161524

E) TACAN KFV CH 75X UNSERVICEABLE. REF AIP: BIKF AD 2.19.

valid to:
1909170900


Replacing:
BIA0419/19

ICAO
BIKF (KEFLAVIK)

FIR
BIRD

Notam_id:
BIA0396/19

valid from:
1908301230

E) THE USE OF 3 NM ATS SURVEILLANCE SEPARATION IN FAXI TMA IS SUSPENDED UFN, REF AIP ENR 1.6.1.2. F) SFC G) FL245

valid to:
1909302359


Replacing:
BIA0378/19

ICAO
BIKF (KEFLAVIK)

FIR
BIRD

Notam_id:
BIA0401/19

valid from:
1909051130

E) INFORMATION IN AD 2.23.6 REGARDING CONTINGENCY FOR STOP BARS IS NOT ACTIVE. FOLLOWING APPLIES: A. AN ALTERNATIVE TAXI ROUTE WHERE THE STOP BARS ARE FUNCTIONING WILL BE USED PRIMARILY. B. IF AN ALTERNATIVE TAXI ROUTE IS NOT AVAILABLE, 1. THE RESPECTIVE LIGHTS TO BE COVERED (TAKES UP TO 15 MINUTES). 2. INFORMATION WILL BE ANNOUNCED ON THE AUTOMATIC TERMINAL INFORMATION SERVICE (ATIS). REF AIP ICELAND BIKF AD 2.23.6 AND BIKF AD 2.24.1.2 - 1

valid to:
1910102359




ICAO
BIKF (KEFLAVIK)

FIR
BIRD

Notam_id:
BIA0422/19

valid from:
1909161000

E) STAND 1, 3, 5, 7, 46, 46L, 46R. CLOSED DUE TO WIP. REF. AIP ICELAND BIKF AD 2.24.1.2-1

valid to:
1909201000




ICAO
BIKF (KEFLAVIK)

FIR
BIRD

Notam_id:
BIA0426/19

valid from:
1909170900

E) VORTAC KFV 112.800 MHZ UNSERVICEABLE. REF AIP: BIKF AD 2.19.

valid to:
1909171400




ICAO
BIRK (REYKJAVIK)

FIR
BIRD

Notam_id:
BIA0395/19

valid from:
1908301220

E) THE USE OF 3 NM ATS SURVEILLANCE SEPARATION IN FAXI TMA IS SUSPENDED UFN, REF AIP ENR 1.6.1.2. F) SFC G) FL245

valid to:
1909302359


Replacing:
BIA0377/19

ICAO
BIRK (REYKJAVIK)

FIR
BIRD

Notam_id:
BIA0390/19

valid from:
1908290840

E) GF LOCATOR 319 KHZ UNSERVICEABLE, DUE TO MAINTENANCE. REF: AIP BIRK AD 2.19.

valid to:
1910282359


Replacing:
BIA0326/19

ICAO
BIRK (REYKJAVIK)

FIR
BIRD

Notam_id:
BIA0305/19

valid from:
1907241519

E) CRANE ERECTED 882M SOUTH OF THRESHOLD RWY 01 AND 103M WEST OF EXTENDED CENTRELINE RWY 01. BOOM LENGTH IS 36M, ELEVATION 102 FEET. OBSTRUCTION IS LIT WITH OBS LGT. POSITION: 640652.96848N 0215612.98891W.

valid to:
1910092359


Replacing:
BIA0166/19

ICAO
BIRK (REYKJAVIK)

FIR
BIRD

Notam_id:
BIA0307/19

valid from:
1907241541

E) CRANE ERECTED 859M SOUTH OF THRESHOLD RWY 01 AND 53M WEST OF EXTENDED CENTRELINE RWY 01. BOOM LENGTH IS 60M, ELEVATION 102 FEET. OBSTRUCTION IS LIT WITH OBS LGT. POSITION: 640653.87832N 0215607.87308W

valid to:
1910092359


Replacing:
BIA0165/19

ICAO
BIAR (AKUREYRI)

FIR
BIRD

Notam_id:
BIA0424/19

valid from:
1909170700

D) MON.-SAT.: 0700-1900


E) DUE TO CONSTRUCTION WORK ON THE STRIP HEAVY MACHINERY ARE ON THE STRIP AREA NORTH OF APRON 69 METERS WEST FROM RWY 01/19 CENTRELINE REF AIP: BIAR AD 2.12

valid to:
1909271900




ICAO
BIAR (AKUREYRI)

FIR
BIRD

Notam_id:
BIA0361/19

valid from:
1908151545

E) FREQUENCY 118.7 IS INOP. REF: AIP ICELAND BIAR AD 2.18.

valid to:
1911142359


Replacing:
BIA0156/19


Copyright Naviair   2003-2016